createdAt,value
2023-04-26T00:01:43.834Z,19.33
2023-04-26T00:04:16.427Z,18.83
2023-04-26T00:06:48.369Z,18.97
2023-04-26T00:09:22.528Z,18.72
2023-04-26T00:11:53.584Z,18.89
2023-04-26T00:14:24.917Z,18.99
2023-04-26T00:16:56.995Z,18.74
2023-04-26T00:19:29.193Z,18.65
2023-04-26T00:22:00.600Z,18.67
2023-04-26T00:24:32.188Z,18.59
2023-04-26T00:27:06.868Z,18.48
2023-04-26T00:29:39.261Z,18.86
2023-04-26T00:32:10.915Z,18.62
2023-04-26T00:34:42.520Z,18.53
2023-04-26T00:37:13.985Z,18.41
2023-04-26T00:39:45.613Z,18.69
2023-04-26T00:42:17.279Z,18.90
2023-04-26T00:44:49.141Z,18.96
2023-04-26T00:47:20.080Z,18.91
2023-04-26T00:49:51.121Z,19.06
2023-04-26T00:52:22.427Z,18.94
2023-04-26T00:54:54.108Z,18.92
2023-04-26T00:57:25.340Z,19.19
2023-04-26T00:59:56.921Z,19.10
2023-04-26T01:02:28.449Z,19.07
2023-04-26T01:04:59.587Z,19.29
2023-04-26T01:07:31.091Z,19.89
2023-04-26T01:10:07.564Z,20.61
2023-04-26T01:12:40.114Z,20.90
2023-04-26T01:15:13.587Z,21.43
2023-04-26T01:17:49.094Z,21.27
2023-04-26T01:20:20.235Z,21.80
2023-04-26T01:22:51.399Z,21.33
2023-04-26T01:25:22.596Z,21.50
2023-04-26T01:27:53.780Z,21.54
2023-04-26T01:30:28.979Z,21.73
2023-04-26T01:33:00.376Z,22.30
2023-04-26T01:35:32.009Z,21.91
2023-04-26T01:38:03.515Z,21.65
2023-04-26T01:40:34.643Z,21.76
2023-04-26T01:43:05.996Z,22.24
2023-04-26T01:45:37.401Z,22.29
2023-04-26T01:48:27.066Z,22.38
2023-04-26T01:50:58.331Z,22.28
2023-04-26T01:53:29.591Z,22.91
2023-04-26T01:56:05.101Z,21.85
2023-04-26T01:58:37.536Z,21.56
2023-04-26T02:01:10.675Z,21.32
2023-04-26T02:03:42.338Z,21.89
2023-04-26T02:06:13.327Z,22.26
2023-04-26T02:08:44.872Z,22.44
2023-04-26T02:11:16.236Z,22.38
2023-04-26T02:13:47.408Z,22.67
2023-04-26T02:16:18.608Z,22.30
2023-04-26T02:18:51.379Z,22.21
2023-04-26T02:21:23.870Z,21.84
2023-04-26T02:23:55.929Z,21.58
2023-04-26T02:26:28.608Z,21.44
2023-04-26T02:28:59.952Z,20.92
2023-04-26T02:31:31.044Z,20.58
2023-04-26T02:34:02.736Z,21.21
2023-04-26T02:36:34.750Z,20.88
2023-04-26T02:39:07.367Z,20.65
2023-04-26T02:41:38.569Z,20.82
2023-04-26T02:44:10.747Z,21.29
2023-04-26T02:46:42.507Z,21.49
2023-04-26T02:49:13.460Z,22.06
2023-04-26T02:51:44.872Z,21.91
2023-04-26T02:54:16.514Z,21.78
2023-04-26T02:56:48.061Z,21.65
2023-04-26T02:59:19.885Z,21.86
2023-04-26T03:01:51.990Z,21.57
2023-04-26T03:04:23.851Z,21.31
2023-04-26T03:06:55.101Z,21.50
2023-04-26T03:09:26.777Z,21.25
2023-04-26T03:11:58.524Z,21.30
2023-04-26T03:14:30.106Z,21.03
2023-04-26T03:17:01.645Z,20.91
2023-04-26T03:19:34.653Z,21.19
2023-04-26T03:22:07.936Z,21.07
2023-04-26T03:24:42.440Z,21.04
2023-04-26T03:27:14.902Z,21.23
2023-04-26T03:29:46.636Z,21.39
2023-04-26T03:32:18.511Z,20.94
2023-04-26T03:34:51.414Z,20.81
2023-04-26T03:37:22.570Z,20.80
2023-04-26T03:40:01.217Z,21.14
2023-04-26T03:42:34.249Z,20.75
2023-04-26T03:45:06.059Z,21.30
2023-04-26T03:47:38.354Z,20.76
2023-04-26T03:50:10.207Z,20.59
2023-04-26T03:52:41.228Z,20.60
2023-04-26T03:55:13.442Z,20.81
2023-04-26T03:57:45.411Z,20.93
2023-04-26T04:00:17.428Z,21.03
2023-04-26T04:02:49.025Z,20.87
2023-04-26T04:05:28.431Z,21.01
2023-04-26T04:08:01.653Z,21.51
2023-04-26T04:10:33.616Z,21.19
2023-04-26T04:13:04.770Z,21.03
2023-04-26T04:15:35.919Z,21.01
2023-04-26T04:18:08.084Z,20.79
2023-04-26T04:20:38.809Z,20.75
2023-04-26T04:23:10.975Z,20.84
2023-04-26T04:25:45.570Z,20.67
2023-04-26T04:28:18.102Z,20.55
2023-04-26T04:30:49.807Z,20.50
2023-04-26T04:33:21.758Z,20.08
2023-04-26T04:35:54.100Z,20.08
2023-04-26T04:38:26.108Z,19.94
2023-04-26T04:40:56.777Z,19.92
2023-04-26T04:43:29.538Z,19.67
2023-04-26T04:46:01.160Z,19.53
2023-04-26T04:48:32.329Z,19.39
2023-04-26T04:51:03.998Z,19.46
2023-04-26T04:53:34.630Z,19.23
2023-04-26T04:56:05.799Z,19.39
2023-04-26T04:58:37.723Z,19.15
2023-04-26T05:01:10.179Z,19.21
2023-04-26T05:03:54.435Z,18.90
2023-04-26T05:06:25.826Z,18.83
2023-04-26T05:08:58.086Z,18.69
2023-04-26T05:11:29.863Z,18.60
2023-04-26T05:14:01.867Z,18.50
2023-04-26T05:16:34.088Z,18.34
2023-04-26T05:19:09.245Z,18.21
2023-04-26T05:21:41.383Z,18.34
2023-04-26T05:24:12.753Z,18.17
2023-04-26T05:26:43.850Z,18.13
2023-04-26T05:29:37.598Z,18.00
2023-04-26T05:32:27.785Z,17.93
2023-04-26T05:35:18.788Z,17.85
2023-04-26T05:37:49.986Z,17.99
2023-04-26T05:40:22.289Z,18.01
2023-04-26T05:42:53.736Z,17.67
2023-04-26T05:45:25.815Z,17.50
2023-04-26T05:47:56.896Z,17.50
2023-04-26T05:50:28.997Z,17.34
2023-04-26T05:53:00.296Z,17.35
2023-04-26T05:55:33.262Z,17.28
2023-04-26T05:58:04.546Z,17.27
2023-04-26T06:00:35.823Z,17.12
2023-04-26T06:03:08.569Z,17.17
2023-04-26T06:05:40.193Z,17.26
2023-04-26T06:08:12.049Z,17.01
2023-04-26T06:10:42.707Z,17.18
2023-04-26T06:13:14.094Z,17.07
2023-04-26T06:15:46.968Z,17.00
2023-04-26T06:18:18.872Z,16.94
2023-04-26T06:20:50.998Z,16.83
2023-04-26T06:23:22.781Z,16.68
2023-04-26T06:25:54.280Z,16.76
2023-04-26T06:28:25.444Z,16.81
2023-04-26T06:30:56.721Z,16.72
2023-04-26T06:36:16.684Z,16.54
2023-04-26T06:38:48.203Z,16.40
2023-04-26T06:44:07.900Z,16.60
2023-04-26T06:46:42.582Z,16.67
2023-04-26T06:49:14.117Z,16.58
2023-04-26T06:51:46.009Z,16.61
2023-04-26T06:54:17.821Z,16.43
2023-04-26T06:56:49.144Z,16.51
2023-04-26T06:59:20.411Z,16.47
2023-04-26T07:01:51.819Z,16.51
2023-04-26T07:04:23.990Z,16.46
2023-04-26T07:06:55.130Z,16.34
2023-04-26T07:09:26.410Z,16.42
2023-04-26T07:11:57.634Z,16.38
2023-04-26T07:14:28.679Z,16.32
2023-04-26T07:17:00.164Z,16.21
2023-04-26T07:19:31.464Z,16.18
2023-04-26T07:22:03.080Z,16.15
2023-04-26T07:24:34.115Z,16.11
2023-04-26T07:27:05.525Z,16.14
2023-04-26T07:29:36.405Z,16.11
2023-04-26T07:32:08.281Z,16.18
2023-04-26T07:34:39.612Z,16.14
2023-04-26T07:37:11.024Z,16.24
2023-04-26T07:39:42.564Z,16.04
2023-04-26T07:42:14.116Z,16.19
2023-04-26T07:44:45.231Z,16.07
2023-04-26T07:47:16.624Z,15.89
2023-04-26T07:49:47.984Z,15.82
2023-04-26T07:52:19.101Z,15.96
2023-04-26T07:54:50.633Z,15.99
2023-04-26T07:57:21.466Z,15.95
2023-04-26T07:59:52.855Z,15.90
2023-04-26T08:02:36.767Z,15.95
2023-04-26T08:05:16.273Z,15.98
2023-04-26T08:07:47.544Z,15.97
2023-04-26T08:10:24.043Z,15.89
2023-04-26T08:12:55.596Z,15.88
2023-04-26T08:15:26.825Z,16.00
2023-04-26T08:17:58.758Z,15.88
2023-04-26T08:20:30.331Z,15.75
2023-04-26T08:23:01.989Z,15.92
2023-04-26T08:25:36.306Z,15.73
2023-04-26T08:28:09.452Z,15.73
2023-04-26T08:30:40.892Z,15.75
2023-04-26T08:33:12.870Z,15.70
2023-04-26T08:35:45.962Z,15.65
2023-04-26T08:38:18.279Z,15.67
2023-04-26T08:40:50.535Z,15.79
2023-04-26T08:43:22.116Z,15.66
2023-04-26T08:45:54.089Z,15.64
2023-04-26T08:48:24.556Z,15.50
2023-04-26T08:50:56.715Z,15.34
2023-04-26T08:53:28.125Z,15.32
2023-04-26T08:56:03.061Z,15.39
2023-04-26T08:58:34.426Z,15.21
2023-04-26T09:01:06.210Z,15.21
2023-04-26T09:03:37.938Z,15.09
2023-04-26T09:06:10.291Z,15.13
2023-04-26T09:08:43.301Z,15.26
2023-04-26T09:11:14.840Z,15.17
2023-04-26T09:13:45.943Z,15.35
2023-04-26T09:16:17.399Z,15.44
2023-04-26T09:18:56.167Z,15.43
2023-04-26T09:21:27.433Z,15.49
2023-04-26T09:24:08.081Z,15.34
2023-04-26T09:26:39.993Z,15.25
2023-04-26T09:29:17.237Z,15.44
2023-04-26T09:31:51.183Z,15.36
2023-04-26T09:34:22.747Z,15.27
2023-04-26T09:36:58.461Z,15.22
2023-04-26T09:39:36.850Z,15.21
2023-04-26T09:42:08.849Z,15.23
2023-04-26T09:44:40.792Z,15.00
2023-04-26T09:47:12.431Z,14.70
2023-04-26T09:49:52.031Z,14.63
2023-04-26T09:52:23.590Z,14.42
2023-04-26T09:54:56.059Z,14.42
2023-04-26T09:57:27.577Z,14.46
2023-04-26T09:59:59.010Z,14.36
2023-04-26T10:02:31.504Z,14.41
2023-04-26T10:05:04.677Z,14.60
2023-04-26T10:07:37.686Z,14.86
2023-04-26T10:10:10.248Z,14.77
2023-04-26T10:12:46.567Z,14.83
2023-04-26T10:15:18.369Z,14.85
2023-04-26T10:17:51.933Z,14.79
2023-04-26T10:20:23.769Z,14.44
2023-04-26T10:23:02.617Z,14.12
2023-04-26T10:25:41.181Z,14.21
2023-04-26T10:28:13.002Z,14.18
2023-04-26T10:31:00.548Z,14.01
2023-04-26T10:33:32.214Z,14.00
2023-04-26T10:36:07.486Z,13.88
2023-04-26T10:38:40.975Z,13.65
2023-04-26T10:41:41.726Z,13.54
2023-04-26T10:44:44.191Z,13.86
2023-04-26T10:47:33.450Z,13.51
2023-04-26T10:50:12.204Z,13.48
2023-04-26T10:53:07.676Z,13.37
2023-04-26T10:55:43.444Z,13.39
2023-04-26T10:58:34.480Z,13.30
2023-04-26T11:01:22.631Z,13.15
2023-04-26T11:04:00.096Z,13.06
2023-04-26T11:06:50.775Z,12.99
2023-04-26T11:09:42.441Z,13.25
2023-04-26T11:12:16.248Z,13.01
2023-04-26T11:14:48.438Z,13.04
2023-04-26T11:17:19.875Z,12.77
2023-04-26T11:19:54.432Z,12.88
2023-04-26T11:22:25.971Z,12.80
2023-04-26T11:24:57.269Z,12.71
2023-04-26T11:27:31.314Z,12.67
2023-04-26T11:30:07.367Z,12.84
2023-04-26T11:32:39.119Z,12.83
2023-04-26T11:35:11.715Z,13.16
2023-04-26T11:37:42.957Z,13.41
2023-04-26T11:40:14.060Z,13.56
2023-04-26T11:42:49.549Z,13.60
2023-04-26T11:45:20.708Z,13.44
2023-04-26T11:47:52.005Z,13.13
2023-04-26T11:50:28.148Z,13.34
2023-04-26T11:53:01.847Z,13.32
2023-04-26T11:55:34.819Z,13.18
2023-04-26T11:58:16.182Z,13.09
2023-04-26T12:01:05.571Z,12.87
2023-04-26T12:03:39.422Z,12.76
2023-04-26T12:06:11.283Z,12.60
2023-04-26T12:08:42.898Z,12.60
2023-04-26T12:11:19.148Z,12.65
2023-04-26T12:13:50.586Z,12.55
2023-04-26T12:16:26.678Z,12.44
2023-04-26T12:18:58.717Z,12.51
2023-04-26T12:21:31.030Z,12.39
2023-04-26T12:24:03.007Z,12.26
2023-04-26T12:26:46.248Z,12.40
2023-04-26T12:29:17.650Z,12.28
2023-04-26T12:31:49.502Z,12.33
2023-04-26T12:34:20.610Z,12.10
2023-04-26T12:36:52.009Z,12.11
2023-04-26T12:39:23.949Z,11.93
2023-04-26T12:41:56.636Z,11.81
2023-04-26T12:44:27.760Z,11.68
2023-04-26T12:46:59.180Z,11.74
2023-04-26T12:49:31.867Z,11.65
2023-04-26T12:52:03.481Z,11.78
2023-04-26T12:54:35.250Z,11.77
2023-04-26T12:57:07.255Z,11.64
2023-04-26T12:59:38.901Z,11.85
2023-04-26T13:02:11.883Z,11.68
2023-04-26T13:04:43.735Z,11.53
2023-04-26T13:07:14.980Z,11.61
2023-04-26T13:09:46.991Z,11.61
2023-04-26T13:12:19.771Z,11.71
2023-04-26T13:14:50.523Z,11.64
2023-04-26T13:17:21.550Z,11.59
2023-04-26T13:19:54.466Z,11.26
2023-04-26T13:22:26.151Z,11.23
2023-04-26T13:24:57.511Z,11.39
2023-04-26T13:27:31.388Z,11.34
2023-04-26T13:30:03.624Z,11.39
2023-04-26T13:32:35.655Z,11.32
2023-04-26T13:35:07.482Z,10.89
2023-04-26T13:37:38.780Z,11.02
2023-04-26T13:40:12.652Z,11.05
2023-04-26T13:42:44.765Z,10.93
2023-04-26T13:45:18.166Z,11.03
2023-04-26T13:47:50.766Z,10.85
2023-04-26T13:50:22.049Z,10.70
2023-04-26T13:52:54.565Z,10.98
2023-04-26T13:55:27.173Z,10.81
2023-04-26T13:57:59.275Z,11.01
2023-04-26T14:00:32.168Z,10.77
2023-04-26T14:03:03.603Z,10.67
2023-04-26T14:05:35.052Z,10.71
2023-04-26T14:08:06.724Z,10.87
2023-04-26T14:10:37.179Z,10.89
2023-04-26T14:13:10.737Z,10.73
2023-04-26T14:15:42.004Z,10.76
2023-04-26T14:18:13.294Z,10.50
2023-04-26T14:20:46.861Z,10.38
2023-04-26T14:23:18.453Z,10.36
2023-04-26T14:25:54.551Z,10.25
2023-04-26T14:28:26.068Z,10.27
2023-04-26T14:30:57.624Z,10.50
2023-04-26T14:33:29.350Z,10.26
2023-04-26T14:36:01.228Z,10.20
2023-04-26T14:38:34.007Z,10.32
2023-04-26T14:41:05.620Z,10.29
2023-04-26T14:43:36.989Z,10.31
2023-04-26T14:46:09.653Z,9.99
2023-04-26T14:48:40.880Z,10.01
2023-04-26T14:51:12.578Z,10.03
2023-04-26T14:53:44.092Z,9.96
2023-04-26T14:56:15.689Z,10.02
2023-04-26T14:58:47.865Z,9.80
2023-04-26T15:01:19.272Z,9.69
2023-04-26T15:03:50.502Z,9.66
2023-04-26T15:06:22.247Z,9.71
2023-04-26T15:08:53.696Z,9.78
2023-04-26T15:11:25.230Z,9.68
2023-04-26T15:13:57.390Z,9.64
2023-04-26T15:16:28.960Z,9.57
2023-04-26T15:19:00.657Z,9.61
2023-04-26T15:21:32.897Z,9.71
2023-04-26T15:24:04.347Z,9.85
2023-04-26T15:26:35.856Z,9.76
2023-04-26T15:29:10.815Z,9.98
2023-04-26T15:31:42.308Z,10.04
2023-04-26T15:34:13.885Z,9.81
2023-04-26T15:36:45.306Z,9.95
2023-04-26T15:39:17.136Z,9.94
2023-04-26T15:41:48.841Z,9.79
2023-04-26T15:44:20.122Z,9.91
2023-04-26T15:46:51.570Z,9.79
2023-04-26T15:49:23.265Z,9.74
2023-04-26T15:51:54.867Z,9.66
2023-04-26T15:54:27.899Z,9.68
2023-04-26T15:56:59.826Z,9.71
2023-04-26T15:59:32.232Z,9.47
2023-04-26T16:02:04.120Z,9.53
2023-04-26T16:04:35.326Z,9.47
2023-04-26T16:07:07.035Z,9.42
2023-04-26T16:09:38.878Z,9.30
2023-04-26T16:12:10.338Z,9.26
2023-04-26T16:14:42.259Z,9.25
2023-04-26T16:17:13.888Z,9.24
2023-04-26T16:19:46.325Z,9.41
2023-04-26T16:22:18.142Z,9.55
2023-04-26T16:24:49.671Z,9.68
2023-04-26T16:27:22.494Z,9.74
2023-04-26T16:29:53.845Z,9.78
2023-04-26T16:32:25.133Z,9.86
2023-04-26T16:34:56.710Z,9.88
2023-04-26T16:37:28.025Z,9.89
2023-04-26T16:39:59.341Z,9.83
2023-04-26T16:42:33.718Z,10.05
2023-04-26T16:45:06.622Z,10.10
2023-04-26T16:47:38.161Z,10.16
2023-04-26T16:50:10.296Z,10.17
2023-04-26T16:52:40.649Z,10.33
2023-04-26T16:55:12.309Z,10.38
2023-04-26T16:57:43.891Z,10.23
2023-04-26T17:00:16.397Z,10.32
2023-04-26T17:02:48.063Z,10.32
2023-04-26T17:05:19.619Z,10.34
2023-04-26T17:07:51.202Z,10.36
2023-04-26T17:10:22.545Z,10.37
2023-04-26T17:12:54.177Z,10.29
2023-04-26T17:15:25.280Z,10.26
2023-04-26T17:17:56.524Z,10.24
2023-04-26T17:20:34.721Z,10.33
2023-04-26T17:23:06.836Z,10.19
2023-04-26T17:25:38.586Z,10.18
2023-04-26T17:28:11.359Z,10.29
2023-04-26T17:30:42.607Z,10.20
2023-04-26T17:33:13.752Z,10.22
2023-04-26T17:35:45.098Z,10.22
2023-04-26T17:38:16.327Z,10.17
2023-04-26T17:40:47.854Z,10.38
2023-04-26T17:43:19.375Z,10.28
2023-04-26T17:45:50.772Z,10.28
2023-04-26T17:48:22.424Z,10.37
2023-04-26T17:50:54.276Z,10.26
2023-04-26T17:53:26.010Z,10.32
2023-04-26T17:55:57.195Z,10.29
2023-04-26T17:58:31.491Z,10.33
2023-04-26T18:01:02.902Z,10.31
2023-04-26T18:03:37.080Z,10.42
2023-04-26T18:06:08.778Z,10.56
2023-04-26T18:08:40.397Z,10.44
2023-04-26T18:11:11.750Z,10.34
2023-04-26T18:13:42.961Z,10.35
2023-04-26T18:16:16.075Z,10.54
2023-04-26T18:18:47.734Z,10.44
2023-04-26T18:21:18.827Z,10.41
2023-04-26T18:23:50.691Z,10.39
2023-04-26T18:26:21.979Z,10.36
2023-04-26T18:28:53.530Z,10.35
2023-04-26T18:31:25.602Z,10.33
2023-04-26T18:33:56.959Z,10.39
2023-04-26T18:36:28.729Z,10.46
2023-04-26T18:39:00.972Z,10.23
2023-04-26T18:41:32.925Z,10.39
2023-04-26T18:44:04.476Z,10.51
2023-04-26T18:46:36.155Z,10.46
2023-04-26T18:49:07.552Z,10.52
2023-04-26T18:51:38.796Z,10.47
2023-04-26T18:54:10.158Z,10.54
2023-04-26T18:56:42.948Z,10.55
2023-04-26T18:59:14.351Z,10.58
2023-04-26T19:01:45.812Z,10.56
2023-04-26T19:04:17.673Z,10.51
2023-04-26T19:06:48.925Z,10.38
2023-04-26T19:09:20.416Z,10.47
2023-04-26T19:11:51.141Z,10.65
2023-04-26T19:14:22.105Z,10.58
2023-04-26T19:16:55.179Z,10.53
2023-04-26T19:19:27.134Z,10.58
2023-04-26T19:21:58.518Z,10.70
2023-04-26T19:24:29.485Z,10.61
2023-04-26T19:27:00.985Z,10.60
2023-04-26T19:29:32.587Z,10.74
2023-04-26T19:32:06.034Z,11.54
2023-04-26T19:34:40.325Z,12.22
2023-04-26T19:37:11.602Z,12.74
2023-04-26T19:39:43.028Z,13.53
2023-04-26T19:42:14.869Z,13.47
2023-04-26T19:44:45.947Z,13.61
2023-04-26T19:47:17.525Z,13.02
2023-04-26T19:49:50.989Z,12.44
2023-04-26T19:52:22.579Z,12.10
2023-04-26T19:54:57.050Z,11.83
2023-04-26T19:57:28.377Z,11.96
2023-04-26T19:59:59.860Z,12.13
2023-04-26T20:02:37.816Z,11.83
2023-04-26T20:05:10.855Z,12.06
2023-04-26T20:07:44.336Z,12.18
2023-04-26T20:10:16.992Z,12.21
2023-04-26T20:12:49.570Z,12.21
2023-04-26T20:15:21.226Z,12.31
2023-04-26T20:17:52.531Z,13.12
2023-04-26T20:20:24.351Z,13.81
2023-04-26T20:22:55.800Z,14.05
2023-04-26T20:25:27.279Z,14.22
2023-04-26T20:27:59.004Z,14.19
2023-04-26T20:30:32.222Z,14.02
2023-04-26T20:33:04.040Z,14.33
2023-04-26T20:35:35.321Z,13.61
2023-04-26T20:38:06.527Z,13.48
2023-04-26T20:40:38.777Z,13.60
2023-04-26T20:43:10.120Z,13.84
2023-04-26T20:45:43.929Z,13.90
2023-04-26T20:48:15.510Z,14.21
2023-04-26T20:50:46.965Z,14.81
2023-04-26T20:53:18.013Z,14.38
2023-04-26T20:55:49.981Z,14.81
2023-04-26T20:58:21.346Z,15.16
2023-04-26T21:00:56.860Z,15.25
2023-04-26T21:03:28.713Z,15.70
2023-04-26T21:06:00.409Z,16.14
2023-04-26T21:08:31.755Z,16.47
2023-04-26T21:11:03.372Z,16.82
2023-04-26T21:13:34.553Z,17.22
2023-04-26T21:16:06.835Z,17.47
2023-04-26T21:18:39.123Z,17.57
2023-04-26T21:21:10.744Z,17.75
2023-04-26T21:23:42.035Z,17.51
2023-04-26T21:26:13.237Z,17.22
2023-04-26T21:28:46.259Z,17.28
2023-04-26T21:31:18.095Z,18.15
2023-04-26T21:33:52.199Z,18.28
2023-04-26T21:36:26.239Z,18.32
2023-04-26T21:38:59.266Z,19.03
2023-04-26T21:41:33.321Z,18.67
2023-04-26T21:44:05.511Z,19.24
2023-04-26T21:46:37.137Z,18.97
2023-04-26T21:49:08.962Z,18.63
2023-04-26T21:51:40.042Z,19.11
2023-04-26T21:54:11.488Z,19.13
2023-04-26T21:56:42.935Z,18.35
2023-04-26T21:59:15.604Z,19.45
2023-04-26T22:01:46.731Z,19.50
2023-04-26T22:04:18.053Z,19.70
2023-04-26T22:06:49.494Z,20.01
2023-04-26T22:09:22.546Z,19.67
2023-04-26T22:11:54.165Z,20.35
2023-04-26T22:14:25.594Z,19.91
2023-04-26T22:16:56.698Z,19.99
2023-04-26T22:19:28.854Z,19.75
2023-04-26T22:22:00.638Z,20.66
2023-04-26T22:24:32.034Z,20.87
2023-04-26T22:27:03.914Z,19.90
2023-04-26T22:29:35.452Z,20.05
2023-04-26T22:32:07.107Z,20.67
2023-04-26T22:34:39.376Z,20.40
2023-04-26T22:37:20.783Z,19.86
2023-04-26T22:39:55.103Z,20.27
2023-04-26T22:42:26.294Z,20.52
2023-04-26T22:44:58.393Z,20.82
2023-04-26T22:47:29.654Z,20.97
2023-04-26T22:50:01.109Z,20.27
2023-04-26T22:52:34.246Z,21.17
2023-04-26T22:55:06.290Z,20.54
2023-04-26T22:57:38.174Z,20.43
2023-04-26T23:00:11.465Z,20.53
2023-04-26T23:02:43.055Z,20.78
2023-04-26T23:05:15.043Z,20.76
2023-04-26T23:07:47.214Z,20.69
2023-04-26T23:10:18.645Z,21.16
2023-04-26T23:12:52.252Z,21.57
2023-04-26T23:15:23.741Z,20.90
2023-04-26T23:17:55.349Z,21.01
2023-04-26T23:20:27.703Z,20.51
2023-04-26T23:22:59.218Z,21.27
2023-04-26T23:25:30.677Z,21.24
2023-04-26T23:28:02.734Z,21.67
2023-04-26T23:30:33.863Z,21.36
2023-04-26T23:33:08.122Z,21.62
2023-04-26T23:35:44.486Z,20.99
2023-04-26T23:38:15.780Z,21.78
2023-04-26T23:40:47.629Z,21.84
2023-04-26T23:43:19.588Z,21.74
2023-04-26T23:45:50.836Z,21.67
2023-04-26T23:48:22.580Z,22.83
2023-04-26T23:50:53.350Z,23.17
2023-04-26T23:53:24.713Z,22.59
2023-04-26T23:55:55.760Z,23.02
2023-04-26T23:58:27.466Z,22.01
